Time;durP1;ratioP1;P1;durP2;ratioP2;P2;SDS_P1;SDS_P2;PMS_P1;PMS_P2;Temp;Humidity;BMP_temperature;BMP_pressure;BME280_temperature;BME280_humidity;BME280_pressure;Samples;Min_cycle;Max_cycle;Signal;HPM_P1;HPM_P2
2022/09/18 00:00:42;;;;;;;4.45;1.40;;;;;;;11.28;100.00;101550.41;5051085;28;20375;-63
2022/09/18 00:03:08;;;;;;;7.35;1.77;;;;;;;11.25;100.00;101547.84;5051473;28;20037;-62
2022/09/18 00:05:36;;;;;;;8.73;1.80;;;;;;;11.18;100.00;101543.50;5051199;28;20036;-62
2022/09/18 00:08:02;;;;;;;6.13;2.03;;;;;;;11.15;100.00;101544.38;5051377;28;20131;-64
2022/09/18 00:10:28;;;;;;;7.43;2.45;;;;;;;11.15;100.00;101547.00;5051543;28;20713;-63
2022/09/18 00:12:53;;;;;;;9.50;2.90;;;;;;;11.18;100.00;101547.88;5051571;28;20079;-63
2022/09/18 00:15:18;;;;;;;8.63;2.60;;;;;;;11.08;100.00;101552.28;5051365;28;20037;-62
2022/09/18 00:17:43;;;;;;;6.50;2.30;;;;;;;11.10;100.00;101546.13;5051237;28;20044;-63
2022/09/18 00:20:09;;;;;;;6.85;2.42;;;;;;;11.20;100.00;101543.50;5051463;28;20111;-62
2022/09/18 00:22:34;;;;;;;6.85;2.80;;;;;;;11.06;100.00;101548.81;5051655;28;20025;-62
2022/09/18 00:24:59;;;;;;;4.47;2.42;;;;;;;10.95;100.00;101532.25;5051581;28;20170;-63
2022/09/18 00:27:25;;;;;;;7.40;2.58;;;;;;;11.04;100.00;101540.06;5051502;28;20032;-61
2022/09/18 00:29:50;;;;;;;5.25;2.22;;;;;;;11.06;100.00;101528.72;5051400;28;20037;-62
2022/09/18 00:32:15;;;;;;;6.32;2.42;;;;;;;11.08;100.00;101537.41;5051182;28;20033;-63
2022/09/18 00:34:40;;;;;;;8.82;2.45;;;;;;;11.06;100.00;101523.47;5051239;28;20432;-63
2022/09/18 00:37:06;;;;;;;9.05;2.63;;;;;;;11.11;100.00;101533.91;5050867;28;20037;-63
2022/09/18 00:39:32;;;;;;;5.55;2.22;;;;;;;11.10;100.00;101521.69;5051278;28;20184;-62
2022/09/18 00:41:57;;;;;;;6.05;2.10;;;;;;;11.12;100.00;101525.19;5051124;28;20059;-62
2022/09/18 00:44:38;;;;;;;5.80;2.40;;;;;;;11.17;100.00;101541.75;5054115;28;20379;-63
2022/09/18 00:47:09;;;;;;;7.70;2.38;;;;;;;11.20;100.00;101546.13;5055203;28;20037;-63
2022/09/18 00:49:39;;;;;;;6.80;2.73;;;;;;;11.19;100.00;101545.25;5055281;28;20040;-62
2022/09/18 00:52:05;;;;;;;9.68;2.80;;;;;;;11.16;100.00;101530.41;5055164;28;20029;-62
2022/09/18 00:54:40;;;;;;;4.20;2.50;;;;;;;11.23;100.00;101531.25;5055283;28;20436;-61
2022/09/18 00:57:14;;;;;;;5.90;2.50;;;;;;;11.13;100.00;101527.78;5055123;28;20033;-62
2022/09/18 00:59:45;;;;;;;9.65;3.08;;;;;;;11.09;100.00;101538.28;5054931;28;20037;-62
2022/09/18 01:02:11;;;;;;;8.07;2.38;;;;;;;11.09;100.00;101533.03;5055022;28;20086;-62
2022/09/18 01:04:37;;;;;;;7.13;2.70;;;;;;;11.09;100.00;101536.53;5072394;28;20037;-62
2022/09/18 01:07:35;;;;;;;6.28;2.53;;;;;;;11.10;100.00;101540.03;5075169;28;20479;-60
2022/09/18 01:10:31;;;;;;;5.97;2.90;;;;;;;11.15;100.00;101543.50;5074670;28;20344;-61
2022/09/18 01:13:09;;;;;;;7.68;2.65;;;;;;;11.13;100.00;101542.63;5074905;28;20067;-62
2022/09/18 01:15:48;;;;;;;6.35;2.60;;;;;;;11.13;100.00;101560.97;5074880;28;20066;-62
2022/09/18 01:18:32;;;;;;;8.70;2.88;;;;;;;11.08;100.00;101547.88;5074697;28;20047;-62
2022/09/18 01:21:13;;;;;;;6.85;3.10;;;;;;;11.07;100.00;101553.16;5074803;28;20352;-61
2022/09/18 01:24:07;;;;;;;7.07;2.70;;;;;;;11.03;100.00;101549.69;5074836;28;20071;-62
2022/09/18 01:26:54;;;;;;;10.70;3.58;;;;;;;11.03;100.00;101539.19;5071509;28;20056;-62
2022/09/18 01:29:39;;;;;;;7.50;2.83;;;;;;;11.06;100.00;101551.41;5074717;28;20068;-61
2022/09/18 01:32:30;;;;;;;7.35;2.75;;;;;;;11.10;100.00;101545.25;5074301;28;20510;-62
2022/09/18 01:35:12;;;;;;;9.18;2.75;;;;;;;11.10;100.00;101546.13;5071552;28;20051;-62
2022/09/18 01:38:13;;;;;;;7.60;3.08;;;;;;;11.10;100.00;101535.66;5074609;28;20036;-62
2022/09/18 01:40:46;;;;;;;6.65;2.70;;;;;;;11.07;100.00;101534.84;5074380;28;20470;-61
2022/09/18 01:43:15;;;;;;;10.70;2.80;;;;;;;11.09;100.00;101533.03;5074384;28;20079;-62
2022/09/18 01:45:44;;;;;;;7.90;2.75;;;;;;;11.08;100.00;101534.78;5073892;28;20104;-62
2022/09/18 01:48:17;;;;;;;7.00;2.80;;;;;;;11.06;100.00;101526.09;5073863;28;20041;-62
2022/09/18 01:50:50;;;;;;;6.85;3.20;;;;;;;11.04;100.00;101532.22;5074095;28;20053;-62
2022/09/18 01:53:35;;;;;;;7.82;3.30;;;;;;;11.02;100.00;101526.09;5074002;28;20394;-62
2022/09/18 01:56:10;;;;;;;6.47;2.88;;;;;;;10.95;100.00;101513.91;5074429;28;20041;-62
2022/09/18 01:58:36;;;;;;;6.95;2.97;;;;;;;10.91;100.00;101527.91;5074281;28;20062;-61
2022/09/18 02:01:08;;;;;;;7.43;3.10;;;;;;;10.89;100.00;101514.81;5073871;28;20115;-62
2022/09/18 02:03:40;;;;;;;8.95;3.55;;;;;;;10.85;100.00;101523.56;5073931;28;20162;-62
2022/09/18 02:06:15;;;;;;;5.82;3.47;;;;;;;10.88;100.00;101522.69;5074208;28;20450;-62
2022/09/18 02:08:46;;;;;;;5.80;3.38;;;;;;;10.88;100.00;101518.31;5072879;28;20467;-62
2022/09/18 02:11:14;;;;;;;7.27;3.50;;;;;;;10.94;100.00;101509.53;5073855;28;20044;-62
2022/09/18 02:13:46;;;;;;;8.82;3.75;;;;;;;10.96;100.00;101511.28;5073646;28;20431;-62
2022/09/18 02:16:34;;;;;;;10.73;3.47;;;;;;;11.03;100.00;101523.50;5073651;28;20060;-62
2022/09/18 02:19:08;;;;;;;6.43;3.35;;;;;;;11.02;100.00;101520.88;5073054;28;20028;-62
2022/09/18 02:21:35;;;;;;;8.18;3.40;;;;;;;11.02;100.00;101508.66;5073514;28;20040;-62
2022/09/18 02:24:04;;;;;;;8.10;3.80;;;;;;;10.98;100.00;101503.44;5073196;28;20059;-62
2022/09/18 02:26:32;;;;;;;9.52;3.15;;;;;;;10.95;100.00;101495.56;5073430;28;20041;-61
2022/09/18 02:28:58;;;;;;;6.75;3.00;;;;;;;10.97;100.00;101496.44;5073299;28;20035;-61
2022/09/18 02:31:24;;;;;;;8.80;3.15;;;;;;;10.99;100.00;101499.94;5073232;28;20752;-61
2022/09/18 02:33:49;;;;;;;8.00;3.25;;;;;;;10.98;100.00;101498.19;5073096;28;20052;-62
2022/09/18 02:36:37;;;;;;;10.23;3.50;;;;;;;11.09;100.00;101496.38;5073025;28;20043;-63
2022/09/18 02:39:45;;;;;;;7.70;3.05;;;;;;;11.00;100.00;101496.44;5073125;28;20082;-63
2022/09/18 02:42:35;;;;;;;8.23;3.00;;;;;;;10.98;100.00;101492.94;5050340;28;20039;-63
2022/09/18 02:45:18;;;;;;;11.52;2.80;;;;;;;10.97;100.00;101496.44;5072690;28;20139;-63
2022/09/18 02:48:02;;;;;;;11.80;2.88;;;;;;;11.02;100.00;101500.78;5072777;28;20037;-63
2022/09/18 02:51:10;;;;;;;10.40;2.63;;;;;;;11.01;100.00;101506.03;5072955;28;20080;-63
2022/09/18 02:54:00;;;;;;;10.10;2.53;;;;;;;11.08;100.00;101499.91;5072873;28;20046;-62
2022/09/18 02:56:25;;;;;;;10.82;2.65;;;;;;;11.06;100.00;101486.81;5072601;28;20028;-61
2022/09/18 02:58:54;;;;;;;6.00;2.40;;;;;;;11.00;100.00;101491.19;5072712;28;20507;-63
2022/09/18 03:01:22;;;;;;;7.20;2.50;;;;;;;10.94;100.00;101479.00;5072565;28;20267;-61
2022/09/18 03:03:49;;;;;;;10.82;2.72;;;;;;;10.98;100.00;101492.94;5072652;28;20090;-63
2022/09/18 03:06:15;;;;;;;7.55;2.58;;;;;;;10.94;100.00;101483.34;5071856;28;20028;-62
2022/09/18 03:08:40;;;;;;;9.45;2.40;;;;;;;10.95;100.00;101487.72;5072415;28;20028;-61
2022/09/18 03:11:05;;;;;;;6.97;2.25;;;;;;;10.93;100.00;101482.50;5072396;28;20052;-62
2022/09/18 03:13:31;;;;;;;6.65;2.42;;;;;;;10.96;100.00;101489.47;5072295;28;20123;-62
2022/09/18 03:15:56;;;;;;;6.25;2.10;;;;;;;10.94;100.00;101479.00;5072338;28;20350;-63
2022/09/18 03:18:22;;;;;;;7.97;2.53;;;;;;;10.91;100.00;101484.25;5072615;28;20154;-63
2022/09/18 03:20:48;;;;;;;6.22;2.00;;;;;;;10.92;100.00;101477.25;5072275;28;20037;-62
2022/09/18 03:23:13;;;;;;;6.85;2.38;;;;;;;10.92;100.00;101474.63;5072385;28;20048;-60
2022/09/18 03:25:38;;;;;;;9.32;2.40;;;;;;;10.92;100.00;101472.00;5072228;28;20051;-61
2022/09/18 03:28:04;;;;;;;6.82;1.98;;;;;;;10.89;100.00;101475.56;5072158;28;20123;-61
2022/09/18 03:30:30;;;;;;;9.68;2.63;;;;;;;10.84;100.00;101485.16;5072244;28;20029;-61
2022/09/18 03:32:55;;;;;;;9.20;2.40;;;;;;;10.86;100.00;101490.41;5072283;28;20043;-62
2022/09/18 03:35:20;;;;;;;9.52;2.30;;;;;;;10.88;100.00;101480.78;5072126;28;20160;-62
2022/09/18 03:37:45;;;;;;;8.00;2.10;;;;;;;10.87;100.00;101482.53;5071923;28;20035;-61
2022/09/18 03:40:11;;;;;;;12.25;2.10;;;;;;;10.89;100.00;101477.28;5072142;28;20458;-60
2022/09/18 03:42:36;;;;;;;7.57;1.98;;;;;;;10.85;100.00;101470.31;5071882;28;20032;-61
2022/09/18 03:45:02;;;;;;;7.35;2.13;;;;;;;10.83;100.00;101467.72;5071650;28;20067;-61
2022/09/18 03:47:28;;;;;;;10.20;1.83;;;;;;;10.79;100.00;101466.84;5071592;28;20044;-61
2022/09/18 03:49:53;;;;;;;10.57;2.15;;;;;;;10.76;100.00;101465.97;5071605;28;20189;-61
2022/09/18 03:52:18;;;;;;;11.32;1.90;;;;;;;10.77;100.00;101471.22;5071689;28;20181;-61
2022/09/18 03:54:44;;;;;;;5.80;1.73;;;;;;;10.75;100.00;101457.25;5071598;28;20032;-61
2022/09/18 03:57:09;;;;;;;7.72;1.70;;;;;;;10.76;100.00;101458.13;5071591;28;20036;-62
2022/09/18 03:59:34;;;;;;;8.45;1.52;;;;;;;10.73;100.00;101460.78;5071696;28;20445;-61
2022/09/18 04:01:59;;;;;;;6.88;1.50;;;;;;;10.72;100.00;101454.69;5071842;28;20028;-62
2022/09/18 04:04:25;;;;;;;10.52;1.60;;;;;;;10.69;100.00;101459.06;5071432;28;20411;-61
2022/09/18 04:06:50;;;;;;;8.00;1.58;;;;;;;10.67;100.00;101453.81;5071547;28;20047;-62
2022/09/18 04:09:16;;;;;;;10.80;1.77;;;;;;;10.66;100.00;101445.97;5071452;28;20051;-62
2022/09/18 04:11:42;;;;;;;5.95;1.30;;;;;;;10.66;100.00;101457.31;5071363;28;20029;-61
2022/09/18 04:14:07;;;;;;;5.32;1.27;;;;;;;10.60;100.00;101449.47;5071513;28;20024;-61
2022/09/18 04:16:32;;;;;;;5.75;1.38;;;;;;;10.57;100.00;101449.47;5071447;28;20048;-62
2022/09/18 04:18:58;;;;;;;8.95;1.42;;;;;;;10.64;100.00;101455.56;5071571;28;20036;-62
2022/09/18 04:21:23;;;;;;;10.20;1.60;;;;;;;10.62;100.00;101450.34;5071401;28;20032;-62
2022/09/18 04:23:48;;;;;;;5.82;1.40;;;;;;;10.67;100.00;101456.44;5071298;28;20036;-63
2022/09/18 04:26:14;;;;;;;11.85;1.50;;;;;;;10.67;100.00;101451.19;5071296;28;20410;-63
2022/09/18 04:28:39;;;;;;;7.78;1.55;;;;;;;10.73;100.00;101455.56;5071339;28;20056;-62
2022/09/18 04:31:04;;;;;;;4.85;1.58;;;;;;;10.71;100.00;101446.84;5071367;28;20040;-62
2022/09/18 04:33:30;;;;;;;6.93;1.65;;;;;;;10.75;100.00;101453.78;5071368;28;20047;-61
2022/09/18 04:35:56;;;;;;;5.15;1.27;;;;;;;10.73;100.00;101459.03;5070705;28;20422;-64
2022/09/18 04:38:26;;;;;;;4.97;1.23;;;;;;;10.72;100.00;101459.03;5071186;28;20086;-63
2022/09/18 04:40:58;;;;;;;7.88;1.23;;;;;;;10.71;100.00;101460.78;5071265;28;20348;-62
2022/09/18 04:43:26;;;;;;;4.32;1.38;;;;;;;10.72;100.00;101473.00;5071329;28;20039;-62
2022/09/18 04:45:51;;;;;;;4.82;1.30;;;;;;;10.71;100.00;101462.53;5071052;28;20452;-62
2022/09/18 04:48:17;;;;;;;5.82;1.50;;;;;;;10.71;100.00;101463.41;5071338;28;20044;-62
2022/09/18 04:50:44;;;;;;;7.28;1.50;;;;;;;10.69;100.00;101459.06;5071119;28;20040;-63
2022/09/18 04:53:09;;;;;;;5.18;1.58;;;;;;;10.70;100.00;101461.66;5070731;28;20690;-61
2022/09/18 04:55:34;;;;;;;5.40;1.20;;;;;;;10.70;100.00;101460.78;5071066;28;20111;-62
2022/09/18 04:58:00;;;;;;;6.70;1.40;;;;;;;10.68;100.00;101463.41;5071033;28;20029;-62
2022/09/18 05:00:25;;;;;;;8.70;1.10;;;;;;;10.73;100.00;101466.91;5071080;28;20444;-62
2022/09/18 05:02:50;;;;;;;6.05;1.45;;;;;;;10.69;100.00;101465.16;5071100;28;20157;-62
2022/09/18 05:05:16;;;;;;;5.45;1.42;;;;;;;10.71;100.00;101463.41;5070975;28;20351;-64
2022/09/18 05:07:41;;;;;;;5.20;1.45;;;;;;;10.72;100.00;101452.06;5071173;28;20124;-63
2022/09/18 05:10:09;;;;;;;7.22;1.58;;;;;;;10.68;100.00;101445.09;5070916;28;20036;-63
2022/09/18 05:12:34;;;;;;;7.60;1.50;;;;;;;10.77;100.00;101445.03;5071164;28;20028;-62
2022/09/18 05:15:00;;;;;;;9.88;1.70;;;;;;;10.75;100.00;101436.31;5071079;28;20043;-62
2022/09/18 05:17:25;;;;;;;6.72;1.77;;;;;;;10.75;100.00;101438.94;5071043;28;20068;-64
2022/09/18 05:19:50;;;;;;;7.80;1.77;;;;;;;10.74;100.00;101454.66;5070994;28;20055;-62
2022/09/18 05:22:15;;;;;;;5.78;1.42;;;;;;;10.75;100.00;101449.41;5070912;28;20335;-62
2022/09/18 05:24:41;;;;;;;6.13;1.35;;;;;;;10.75;100.00;101453.78;5070648;28;20032;-62
2022/09/18 05:27:07;;;;;;;4.72;1.40;;;;;;;10.80;100.00;101470.34;5070956;28;20036;-61
2022/09/18 05:29:32;;;;;;;6.35;1.40;;;;;;;10.81;100.00;101459.00;5072268;28;20131;-61
2022/09/18 05:31:57;;;;;;;5.00;1.50;;;;;;;10.84;100.00;101460.72;5074531;28;20430;-63
2022/09/18 05:34:22;;;;;;;6.47;1.90;;;;;;;10.79;100.00;101461.59;5074353;28;20036;-62
2022/09/18 05:36:48;;;;;;;4.72;1.33;;;;;;;10.80;100.00;101479.06;5074032;28;20028;-62
2022/09/18 05:39:13;;;;;;;8.10;1.80;;;;;;;10.76;100.00;101482.56;5074120;28;20052;-61
2022/09/18 05:41:38;;;;;;;5.93;1.40;;;;;;;10.75;100.00;101474.72;5074287;28;20032;-60
2022/09/18 05:44:03;;;;;;;5.88;1.13;;;;;;;10.74;100.00;101486.94;5074390;28;20038;-62
2022/09/18 05:46:29;;;;;;;8.15;1.50;;;;;;;10.70;100.00;101469.53;5074259;28;20106;-62
2022/09/18 05:48:54;;;;;;;7.43;1.42;;;;;;;10.67;100.00;101461.66;5074116;28;20032;-63
2022/09/18 05:51:20;;;;;;;8.10;1.50;;;;;;;10.64;100.00;101440.75;5073791;28;20063;-62
2022/09/18 05:53:47;;;;;;;8.30;1.75;;;;;;;10.69;100.00;101462.53;5073944;28;20029;-62
2022/09/18 05:56:14;;;;;;;8.73;1.80;;;;;;;10.69;100.00;101465.16;5073900;28;20040;-61
2022/09/18 05:58:40;;;;;;;7.47;2.10;;;;;;;10.78;100.00;101466.84;5073872;28;20367;-62
2022/09/18 06:01:05;;;;;;;6.60;1.73;;;;;;;10.80;100.00;101459.88;5074122;28;20062;-62
2022/09/18 06:03:31;;;;;;;6.15;1.73;;;;;;;10.84;100.00;101460.72;5073736;28;20431;-62
2022/09/18 06:05:56;;;;;;;6.15;1.60;;;;;;;10.91;100.00;101458.06;5073904;28;20024;-62
2022/09/18 06:08:22;;;;;;;8.68;1.88;;;;;;;10.92;100.00;101454.56;5074101;28;20134;-64
2022/09/18 06:10:47;;;;;;;7.90;1.85;;;;;;;10.93;100.00;101461.53;5073701;28;20483;-64
2022/09/18 06:13:14;;;;;;;10.25;2.15;;;;;;;10.95;100.00;101448.44;5073763;28;20110;-61
2022/09/18 06:15:44;;;;;;;9.18;1.90;;;;;;;11.02;100.00;101444.94;5073584;28;20393;-61
2022/09/18 06:18:10;;;;;;;11.65;1.92;;;;;;;11.08;100.00;101450.13;5073570;28;20043;-62
2022/09/18 06:20:35;;;;;;;6.95;2.10;;;;;;;11.11;100.00;101450.09;5073378;28;20032;-61
2022/09/18 06:23:01;;;;;;;11.05;1.88;;;;;;;11.25;100.00;101450.91;5073547;28;20093;-63
2022/09/18 06:25:27;;;;;;;9.38;1.73;;;;;;;11.40;100.00;101452.53;5073504;28;20392;-62
2022/09/18 06:27:57;;;;;;;9.32;1.92;;;;;;;11.52;100.00;101455.94;5073329;28;20435;-63
2022/09/18 06:30:28;;;;;;;7.55;2.03;;;;;;;11.57;100.00;101458.53;5073417;28;20451;-62
2022/09/18 06:32:55;;;;;;;7.50;2.13;;;;;;;11.58;100.00;101452.41;5073237;28;20035;-63
2022/09/18 06:35:21;;;;;;;10.80;2.10;;;;;;;11.56;100.00;101455.91;5072931;28;20452;-62
2022/09/18 06:37:46;;;;;;;11.98;2.30;;;;;;;11.57;100.00;101449.81;5066570;28;20036;-61
2022/09/18 06:40:12;;;;;;;8.55;2.25;;;;;;;11.61;100.00;101443.63;5061618;28;20119;-63
2022/09/18 06:42:37;;;;;;;10.63;2.33;;;;;;;11.60;100.00;101432.28;5063271;28;20044;-62
2022/09/18 06:45:02;;;;;;;7.68;2.28;;;;;;;11.74;100.00;101440.91;5061178;28;20060;-64
2022/09/18 06:47:28;;;;;;;6.53;2.22;;;;;;;11.80;100.00;101445.25;5066810;28;20040;-63
2022/09/18 06:49:54;;;;;;;7.78;2.10;;;;;;;11.75;100.00;101431.28;5072741;28;20065;-63
2022/09/18 06:52:19;;;;;;;8.48;2.22;;;;;;;11.88;100.00;101448.69;5073021;28;20044;-63
2022/09/18 06:54:44;;;;;;;5.18;2.25;;;;;;;11.83;100.00;101446.09;5073278;28;20099;-62
2022/09/18 06:57:09;;;;;;;8.10;2.25;;;;;;;11.85;100.00;101446.09;5072847;28;20040;-63
2022/09/18 06:59:36;;;;;;;7.45;2.20;;;;;;;11.90;100.00;101452.16;5072870;28;20028;-63
2022/09/18 07:02:02;;;;;;;6.80;1.95;;;;;;;11.95;100.00;101449.50;5072743;28;20122;-62
2022/09/18 07:04:27;;;;;;;9.38;2.05;;;;;;;11.93;100.00;101441.66;5072271;28;20032;-62
2022/09/18 07:06:52;;;;;;;8.75;1.90;;;;;;;12.01;100.00;101441.56;5072516;28;20036;-62
2022/09/18 07:09:18;;;;;;;8.80;2.08;;;;;;;12.04;100.00;101446.78;5063576;28;20040;-63
2022/09/18 07:11:43;;;;;;;10.45;1.70;;;;;;;12.14;100.00;101448.41;5060853;28;20032;-63
2022/09/18 07:14:08;;;;;;;4.72;1.75;;;;;;;12.13;100.00;101437.06;5062365;28;20044;-63
2022/09/18 07:16:34;;;;;;;5.30;1.67;;;;;;;12.16;100.00;101446.66;5061769;28;20020;-63
2022/09/18 07:18:59;;;;;;;3.55;1.48;;;;;;;12.17;100.00;101438.78;5060902;28;20020;-63
2022/09/18 07:21:25;;;;;;;8.50;1.95;;;;;;;12.25;100.00;101443.94;5062436;28;20414;-63
2022/09/18 07:23:50;;;;;;;7.53;1.77;;;;;;;12.25;100.00;101438.69;5061570;28;20055;-64
2022/09/18 07:26:17;;;;;;;6.90;1.60;;;;;;;12.29;100.00;101439.53;5062675;28;20028;-64
2022/09/18 07:28:43;;;;;;;8.77;1.85;;;;;;;12.25;100.00;101422.97;5060798;28;20040;-64
2022/09/18 07:31:08;;;;;;;5.05;1.58;;;;;;;12.28;100.00;101416.81;5060498;28;20029;-63
2022/09/18 07:33:34;;;;;;;8.90;1.70;;;;;;;12.30;100.00;101417.63;5067835;28;20040;-64
2022/09/18 07:36:04;;;;;;;8.55;1.70;;;;;;;12.26;100.00;101418.59;5072067;28;20040;-63
2022/09/18 07:38:30;;;;;;;5.68;1.70;;;;;;;12.30;100.00;101421.13;5072102;28;20080;-63
2022/09/18 07:40:56;;;;;;;3.90;1.40;;;;;;;12.33;100.00;101414.97;5071869;28;20043;-64
2022/09/18 07:43:21;;;;;;;5.25;1.70;;;;;;;12.45;100.00;101425.34;5072045;28;20455;-63
2022/09/18 07:45:46;;;;;;;7.65;1.60;;;;;;;12.45;100.00;101425.34;5071675;28;20452;-58
2022/09/18 07:48:12;;;;;;;9.93;2.00;;;;;;;12.47;100.00;101432.31;5071571;28;20036;-62
2022/09/18 07:50:37;;;;;;;7.78;2.03;;;;;;;12.52;100.00;101424.38;5071798;28;20040;-63
2022/09/18 07:53:04;;;;;;;5.60;1.90;;;;;;;12.58;100.00;101431.31;5071395;28;20068;-63
2022/09/18 07:55:30;;;;;;;10.02;1.90;;;;;;;12.67;100.00;101425.94;5071398;28;20028;-63
2022/09/18 07:57:59;;;;;;;8.02;2.00;;;;;;;12.82;100.00;101423.13;5061896;28;20041;-63
2022/09/18 08:00:27;;;;;;;8.25;2.33;;;;;;;12.93;100.00;101423.00;5062382;28;20123;-62
2022/09/18 08:03:08;;;;;;;5.47;2.10;;;;;;;13.15;100.00;101424.47;5059598;28;20368;-63
2022/09/18 08:05:33;;;;;;;6.68;2.08;;;;;;;13.22;100.00;101419.06;5051635;28;20048;-63
2022/09/18 08:08:07;;;;;;;5.95;2.10;;;;;;;13.29;100.00;101413.72;5051633;28;20115;-63
2022/09/18 08:10:33;;;;;;;5.63;1.75;;;;;;;13.42;100.00;101418.78;5051694;28;20037;-62
2022/09/18 08:12:59;;;;;;;11.05;1.88;;;;;;;13.49;100.00;101409.03;5050995;28;20040;-63
2022/09/18 08:15:24;;;;;;;4.18;1.70;;;;;;;13.49;100.00;101409.91;5051108;28;20040;-58
2022/09/18 08:17:50;;;;;;;5.65;1.65;;;;;;;13.52;100.00;101414.22;5051463;28;20040;-64
2022/09/18 08:20:16;;;;;;;6.05;1.60;;;;;;;13.49;100.00;101414.28;5051776;28;20044;-65
2022/09/18 08:22:41;;;;;;;7.97;1.90;;;;;;;13.40;100.00;101427.56;5051519;28;20047;-64
2022/09/18 08:25:07;;;;;;;2.92;1.40;;;;;;;13.29;100.00;101426.88;5051711;28;20135;-65
2022/09/18 08:27:37;;;;;;;9.30;1.85;;;;;;;13.19;100.00;101426.13;5051649;28;20037;-64
2022/09/18 08:30:04;;;;;;;6.10;1.63;;;;;;;13.17;100.00;101431.41;5051225;28;20029;-64
2022/09/18 08:32:31;;;;;;;6.95;1.60;;;;;;;13.14;100.00;101427.94;5051378;28;20123;-66
2022/09/18 08:34:57;;;;;;;6.85;1.40;;;;;;;13.04;100.00;101428.94;5051260;28;20041;-66
2022/09/18 08:37:22;;;;;;;4.03;1.40;;;;;;;12.87;100.00;101416.06;5058966;28;20093;-63
2022/09/18 08:39:48;;;;;;;5.47;1.58;;;;;;;12.85;100.00;101437.09;5060759;28;20049;-64
2022/09/18 08:42:25;;;;;;;5.35;1.75;;;;;;;12.76;100.00;101442.47;5059839;28;20111;-64
2022/09/18 08:45:07;;;;;;;5.28;1.80;;;;;;;12.82;100.00;101439.75;5061065;28;20152;-64
2022/09/18 08:47:41;;;;;;;3.95;1.73;;;;;;;12.85;100.00;101439.72;5061051;28;20029;-63
2022/09/18 08:50:26;;;;;;;4.38;2.28;;;;;;;12.86;100.00;101425.69;5057510;28;20342;-64
2022/09/18 08:53:15;;;;;;;7.70;3.00;;;;;;;13.05;100.00;101433.31;5061005;28;20119;-59
2022/09/18 08:55:44;;;;;;;3.60;1.83;;;;;;;13.02;100.00;101441.22;5060729;28;20745;-60
2022/09/18 08:58:29;;;;;;;4.50;1.70;;;;;;;13.08;100.00;101439.41;5060457;28;20101;-64
2022/09/18 09:01:05;;;;;;;5.70;1.77;;;;;;;13.00;100.00;101430.75;5070934;28;20040;-60
2022/09/18 09:03:39;;;;;;;5.45;1.90;;;;;;;13.00;100.00;101435.13;5071018;28;20118;-61
2022/09/18 09:06:28;;;;;;;7.25;2.60;;;;;;;13.10;100.00;101442.00;5074902;28;20090;-60
2022/09/18 09:09:11;;;;;;;4.30;2.05;;;;;;;13.04;100.00;101436.84;5074649;28;20032;-61
2022/09/18 09:11:52;;;;;;;5.93;2.30;;;;;;;12.96;100.00;101434.31;5075092;28;20036;-60
2022/09/18 09:15:10;;;;;;;4.38;2.15;;;;;;;13.04;100.00;101435.06;5068532;28;20137;-60
2022/09/18 09:17:56;;;;;;;5.22;1.70;;;;;;;12.95;100.00;101431.72;5018926;28;20083;-61
2022/09/18 09:20:23;;;;;;;5.65;2.00;;;;;;;12.99;100.00;101425.53;5054902;28;20024;-60
2022/09/18 09:23:01;;;;;;;4.10;1.90;;;;;;;13.12;100.00;101434.97;5054820;28;20511;-60
2022/09/18 09:26:05;;;;;;;5.40;2.03;;;;;;;13.19;100.00;101441.91;5055279;28;20100;-60
2022/09/18 09:28:50;;;;;;;8.65;2.33;;;;;;;13.11;100.00;101441.13;5032937;28;20041;-61
2022/09/18 09:31:19;;;;;;;4.53;1.90;;;;;;;13.00;100.00;101432.50;5054799;28;20032;-61
2022/09/18 09:33:53;;;;;;;7.30;2.25;;;;;;;12.90;100.00;101434.41;5071973;28;20042;-60
2022/09/18 09:36:24;;;;;;;4.45;2.08;;;;;;;12.85;100.00;101436.22;5076678;28;20071;-60
2022/09/18 09:39:24;;;;;;;4.68;2.20;;;;;;;12.77;100.00;101420.56;5068824;28;20166;-61
2022/09/18 09:42:25;;;;;;;6.78;2.50;;;;;;;12.83;100.00;101438.84;5056064;28;20045;-61
2022/09/18 09:44:53;;;;;;;5.63;2.40;;;;;;;12.85;100.00;101446.72;5072126;28;20135;-60
2022/09/18 09:47:30;;;;;;;8.98;3.05;;;;;;;12.84;100.00;101439.72;5073753;28;20458;-61
2022/09/18 09:50:08;;;;;;;7.88;3.95;;;;;;;12.99;100.00;101436.88;5073745;28;20043;-60
2022/09/18 09:52:36;;;;;;;7.70;4.32;;;;;;;13.14;100.00;101441.97;5074128;28;20119;-60
2022/09/18 09:55:23;;;;;;;7.88;4.93;;;;;;;13.31;100.00;101433.84;5073825;28;20039;-61
2022/09/18 09:58:16;;;;;;;8.63;3.40;;;;;;;13.44;100.00;101429.25;5073999;28;20029;-61
2022/09/18 10:00:49;;;;;;;8.60;2.80;;;;;;;13.52;100.00;101414.22;5073820;28;20464;-61
2022/09/18 10:03:52;;;;;;;5.15;2.90;;;;;;;13.66;100.00;101411.38;5073708;28;20111;-62
2022/09/18 10:06:46;;;;;;;6.20;3.03;;;;;;;13.87;100.00;101406.59;5073386;28;20085;-61
2022/09/18 10:09:28;;;;;;;6.57;2.58;;;;;;;13.92;100.00;101390.72;5073734;28;20036;-62
2022/09/18 10:12:24;;;;;;;4.78;2.72;;;;;;;13.99;100.00;101397.63;5065092;28;20033;-61
2022/09/18 10:14:53;;;;;;;6.38;2.55;;;;;;;13.98;100.00;101402.91;5052846;28;20033;-60
2022/09/18 10:17:21;;;;;;;4.68;2.40;;;;;;;13.98;100.00;101402.91;5052889;28;20079;-62
2022/09/18 10:19:47;;;;;;;8.57;2.50;;;;;;;14.03;100.00;101407.19;5053363;28;20036;-60
2022/09/18 10:22:17;;;;;;;6.45;2.53;;;;;;;14.12;100.00;101404.38;5053048;28;20032;-62
2022/09/18 10:24:47;;;;;;;5.45;2.15;;;;;;;14.15;100.00;101404.34;5052760;28;20144;-61
2022/09/18 10:27:13;;;;;;;7.22;1.92;;;;;;;14.16;100.00;101390.28;5053271;28;20176;-61
2022/09/18 10:29:39;;;;;;;3.28;1.80;;;;;;;14.27;100.00;101398.81;5053189;28;20115;-60
2022/09/18 10:32:05;;;;;;;4.15;1.67;;;;;;;14.46;100.00;101398.50;5052880;28;20124;-62
2022/09/18 10:34:33;;;;;;;7.45;2.20;;;;;;;14.54;100.00;101401.84;5052916;28;20063;-61
2022/09/18 10:36:59;;;;;;;4.28;1.60;;;;;;;14.57;100.00;101409.66;5052454;28;20033;-61
2022/09/18 10:39:28;;;;;;;5.15;1.48;;;;;;;14.40;100.00;101370.50;5052686;28;20056;-60
2022/09/18 10:42:01;;;;;;;5.00;1.42;;;;;;;14.55;100.00;101398.28;5053059;28;20348;-61
2022/09/18 10:44:35;;;;;;;5.57;1.30;;;;;;;14.56;100.00;101392.13;5052880;28;20045;-61
2022/09/18 10:47:27;;;;;;;2.28;0.90;;;;;;;14.53;100.00;101390.44;5052588;28;20039;-61
2022/09/18 10:49:54;;;;;;;2.33;1.13;;;;;;;14.56;99.43;101395.63;5052423;28;20084;-60
2022/09/18 10:52:36;;;;;;;4.32;1.20;;;;;;;14.53;98.16;101386.94;5052768;28;20373;-65
2022/09/18 10:55:04;;;;;;;4.97;1.38;;;;;;;14.57;100.00;101376.28;5052865;28;20036;-57
2022/09/18 10:57:42;;;;;;;3.13;1.10;;;;;;;14.66;99.36;101377.88;5052641;28;20068;-61
2022/09/18 11:00:10;;;;;;;3.10;1.20;;;;;;;14.72;100.00;101375.06;5052540;28;20047;-62
2022/09/18 11:02:45;;;;;;;6.75;1.77;;;;;;;14.70;100.00;101371.63;5052906;28;20040;-62
2022/09/18 11:05:28;;;;;;;4.38;1.80;;;;;;;14.66;100.00;101363.84;5052707;28;20037;-62
2022/09/18 11:07:56;;;;;;;7.05;1.80;;;;;;;14.37;100.00;101372.31;5052776;28;20033;-63
2022/09/18 11:10:24;;;;;;;5.97;1.75;;;;;;;14.18;100.00;101374.47;5052594;28;20431;-61
2022/09/18 11:12:52;;;;;;;6.90;1.80;;;;;;;14.03;100.00;101393.16;5052877;28;20106;-61
2022/09/18 11:15:21;;;;;;;6.03;2.22;;;;;;;13.81;100.00;101408.47;5052476;28;20098;-62
2022/09/18 11:17:50;;;;;;;8.52;2.58;;;;;;;13.44;100.00;101417.00;5052487;28;20032;-64
2022/09/18 11:20:33;;;;;;;14.52;3.13;;;;;;;13.17;100.00;101412.13;5052307;28;20033;-60
2022/09/18 11:23:17;;;;;;;14.45;3.83;;;;;;;12.94;100.00;101414.22;5052386;28;20414;-61
2022/09/18 11:25:44;;;;;;;13.48;2.47;;;;;;;12.69;100.00;101426.78;5052301;28;20078;-59
2022/09/18 11:28:25;;;;;;;7.30;1.77;;;;;;;12.32;100.00;101406.25;5051663;28;20024;-59
2022/09/18 11:31:00;;;;;;;7.47;2.20;;;;;;;12.24;100.00;101401.97;5052150;28;20045;-59
2022/09/18 11:33:34;;;;;;;12.73;3.40;;;;;;;12.33;100.00;101414.97;5052310;28;20060;-61